createdAt,value
2023-05-26T00:05:04.621Z,10.30
2023-05-26T00:10:07.078Z,10.30
2023-05-26T00:15:09.032Z,10.20
2023-05-26T00:20:11.950Z,10.10
2023-05-26T00:25:13.936Z,10.10
2023-05-26T00:30:15.680Z,10.00
2023-05-26T00:35:17.281Z,9.80
2023-05-26T00:40:19.313Z,9.80
2023-05-26T00:45:20.944Z,9.90
2023-05-26T00:50:23.278Z,9.80
2023-05-26T00:55:24.977Z,9.70
2023-05-26T01:00:27.202Z,9.70
2023-05-26T01:05:29.545Z,9.60
2023-05-26T01:10:32.705Z,9.50
2023-05-26T01:15:37.029Z,9.60
2023-05-26T01:20:39.350Z,9.20
2023-05-26T01:25:59.806Z,9.40
2023-05-26T01:31:01.741Z,9.40
2023-05-26T01:36:03.497Z,9.50
2023-05-26T01:41:25.925Z,9.50
2023-05-26T01:46:30.951Z,9.40
2023-05-26T01:51:34.440Z,9.40
2023-05-26T01:56:36.503Z,9.30
2023-05-26T02:01:38.833Z,9.20
2023-05-26T02:06:40.651Z,9.20
2023-05-26T02:11:42.279Z,9.00
2023-05-26T02:16:44.681Z,9.10
2023-05-26T02:21:46.344Z,9.00
2023-05-26T02:26:48.065Z,9.10
2023-05-26T02:31:49.754Z,9.10
2023-05-26T02:36:53.733Z,9.10
2023-05-26T02:41:55.408Z,9.00
2023-05-26T02:46:57.101Z,8.90
2023-05-26T02:51:58.741Z,9.00
2023-05-26T02:57:00.587Z,8.90
2023-05-26T03:02:02.271Z,8.80
2023-05-26T03:07:04.069Z,8.90
2023-05-26T03:12:07.480Z,9.00
2023-05-26T03:17:09.250Z,8.90
2023-05-26T03:22:39.485Z,8.90
2023-05-26T03:27:33.077Z,8.80
2023-05-26T03:32:34.733Z,8.90
2023-05-26T03:37:36.465Z,8.60
2023-05-26T03:42:38.093Z,8.50
2023-05-26T03:47:39.731Z,8.40
2023-05-26T03:52:41.699Z,8.50
2023-05-26T03:57:43.393Z,8.60
2023-05-26T04:02:46.013Z,8.70
2023-05-26T04:07:48.044Z,8.60
2023-05-26T04:12:49.623Z,8.70
2023-05-26T04:17:51.414Z,8.70
2023-05-26T04:22:53.110Z,8.70
2023-05-26T04:27:57.570Z,8.70
2023-05-26T04:32:59.759Z,8.70
2023-05-26T04:38:01.579Z,8.80
2023-05-26T04:43:04.551Z,8.90
2023-05-26T04:48:06.860Z,9.10
2023-05-26T04:53:08.604Z,9.20
2023-05-26T04:58:10.210Z,9.30
2023-05-26T05:03:11.975Z,9.40
2023-05-26T05:08:13.894Z,9.50
2023-05-26T05:13:15.530Z,9.50
2023-05-26T05:18:17.127Z,9.60
2023-05-26T05:23:18.803Z,9.70
2023-05-26T05:28:20.455Z,9.70
2023-05-26T05:33:22.152Z,9.90
2023-05-26T05:38:23.884Z,10.00
2023-05-26T05:43:25.658Z,10.10
2023-05-26T05:48:27.567Z,10.20
2023-05-26T05:53:29.275Z,10.20
2023-05-26T05:58:31.041Z,10.40
2023-05-26T06:03:32.812Z,10.40
2023-05-26T06:08:34.570Z,10.40
2023-05-26T06:13:36.233Z,10.50
2023-05-26T06:18:38.830Z,10.60
2023-05-26T06:23:40.641Z,10.60
2023-05-26T06:28:42.253Z,10.70
2023-05-26T06:33:45.736Z,10.80
2023-05-26T06:38:47.471Z,10.70
2023-05-26T06:43:49.194Z,11.00
2023-05-26T06:48:51.034Z,11.00
2023-05-26T06:53:52.896Z,11.10
2023-05-26T06:58:54.610Z,11.30
2023-05-26T07:04:05.954Z,11.30
2023-05-26T07:09:11.890Z,11.60
2023-05-26T07:14:41.496Z,11.50
2023-05-26T07:19:49.193Z,11.90
2023-05-26T07:24:57.471Z,12.00
2023-05-26T07:30:00.181Z,12.10
2023-05-26T07:35:01.850Z,12.20
2023-05-26T07:40:05.318Z,12.40
2023-05-26T07:45:07.222Z,12.60
2023-05-26T07:50:09.115Z,12.50
2023-05-26T07:55:10.764Z,12.40
2023-05-26T08:00:14.773Z,12.60
2023-05-26T08:05:16.810Z,12.80
2023-05-26T08:10:18.533Z,12.90
2023-05-26T08:15:27.069Z,12.80
2023-05-26T08:20:29.855Z,13.10
2023-05-26T08:25:31.543Z,13.30
2023-05-26T08:30:34.252Z,13.10
2023-05-26T08:35:36.031Z,13.50
2023-05-26T08:40:38.168Z,13.50
2023-05-26T08:45:40.510Z,13.70
2023-05-26T08:50:43.014Z,13.70
2023-05-26T08:55:45.043Z,13.90
2023-05-26T09:00:46.888Z,14.10
2023-05-26T09:05:49.677Z,14.50
2023-05-26T09:10:54.527Z,14.30
2023-05-26T09:16:06.220Z,14.30
2023-05-26T09:21:19.489Z,14.50
2023-05-26T09:26:25.719Z,14.50
2023-05-26T09:31:46.846Z,14.80
2023-05-26T09:36:49.714Z,15.20
2023-05-26T09:41:51.298Z,15.40
2023-05-26T09:46:56.208Z,15.70
2023-05-26T09:52:12.798Z,15.70
2023-05-26T09:57:17.796Z,15.80
2023-05-26T10:02:27.082Z,15.80
2023-05-26T10:07:32.070Z,15.90
2023-05-26T10:12:36.266Z,15.90
2023-05-26T10:17:43.844Z,16.50
2023-05-26T10:22:50.067Z,16.90
2023-05-26T10:27:57.081Z,16.80
2023-05-26T10:33:08.038Z,17.30
2023-05-26T10:38:13.158Z,17.00
2023-05-26T10:43:19.830Z,17.40
2023-05-26T10:48:25.891Z,17.60
2023-05-26T10:53:31.864Z,17.40
2023-05-26T10:58:34.867Z,17.30
2023-05-26T11:03:38.915Z,17.60
2023-05-26T11:08:40.827Z,17.80
2023-05-26T11:13:48.710Z,17.70
2023-05-26T11:18:57.343Z,18.00
2023-05-26T11:23:59.870Z,18.00
2023-05-26T11:29:03.029Z,18.20
2023-05-26T11:34:04.773Z,18.00
2023-05-26T11:39:06.574Z,18.00
2023-05-26T11:44:13.286Z,18.40
2023-05-26T11:49:15.950Z,18.40
2023-05-26T11:54:18.263Z,18.80
2023-05-26T11:59:21.386Z,18.10
2023-05-26T12:04:29.556Z,18.70
2023-05-26T12:09:33.448Z,19.20
2023-05-26T12:14:38.464Z,19.30
2023-05-26T12:19:50.551Z,19.40
2023-05-26T12:24:58.809Z,19.40
2023-05-26T12:30:00.858Z,19.80
2023-05-26T12:35:02.669Z,19.40
2023-05-26T12:40:05.105Z,19.00
2023-05-26T12:45:14.022Z,19.10
2023-05-26T12:50:16.857Z,19.50
2023-05-26T12:55:22.555Z,19.40
2023-05-26T13:00:25.305Z,19.70
2023-05-26T13:05:28.549Z,19.40
2023-05-26T13:10:30.386Z,19.80
2023-05-26T13:15:33.377Z,20.00
2023-05-26T13:20:35.932Z,19.80
2023-05-26T13:25:38.638Z,20.20
2023-05-26T13:30:40.211Z,20.00
2023-05-26T13:35:41.828Z,20.10
2023-05-26T13:40:44.182Z,19.70
2023-05-26T13:45:53.772Z,20.10
2023-05-26T13:50:56.576Z,20.80
2023-05-26T13:55:58.762Z,20.20
2023-05-26T14:01:12.491Z,20.40
2023-05-26T14:06:15.814Z,20.90
2023-05-26T14:11:17.404Z,21.00
2023-05-26T14:16:19.044Z,20.60
2023-05-26T14:21:37.813Z,20.40
2023-05-26T14:26:42.506Z,20.60
2023-05-26T14:31:44.292Z,20.90
2023-05-26T14:36:46.225Z,21.00
2023-05-26T14:41:49.058Z,20.90
2023-05-26T14:46:50.849Z,20.50
2023-05-26T14:51:53.638Z,21.00
2023-05-26T14:56:56.366Z,21.10
2023-05-26T15:01:59.436Z,21.30
2023-05-26T15:07:04.516Z,20.70
2023-05-26T15:12:08.239Z,20.50
2023-05-26T15:17:33.124Z,20.80
2023-05-26T15:22:34.865Z,20.80
2023-05-26T15:27:37.669Z,20.90
2023-05-26T15:32:40.457Z,20.80
2023-05-26T15:37:47.735Z,20.80
2023-05-26T15:42:54.013Z,20.40
2023-05-26T15:47:55.779Z,20.80
2023-05-26T15:52:57.381Z,20.70
2023-05-26T15:58:01.736Z,20.60
2023-05-26T16:03:04.446Z,20.50
2023-05-26T16:08:06.287Z,20.70
2023-05-26T16:13:08.982Z,20.40
2023-05-26T16:18:11.825Z,20.50
2023-05-26T16:23:13.509Z,20.40
2023-05-26T16:28:15.953Z,20.30
2023-05-26T16:33:19.297Z,20.30
2023-05-26T16:38:23.268Z,20.20
2023-05-26T16:43:42.467Z,20.10
2023-05-26T16:48:47.726Z,20.00
2023-05-26T16:53:50.479Z,20.00
2023-05-26T16:58:52.142Z,19.90
2023-05-26T17:03:53.846Z,19.80
2023-05-26T17:08:55.543Z,19.50
2023-05-26T17:13:58.220Z,19.60
2023-05-26T17:18:59.867Z,19.50
2023-05-26T17:24:01.594Z,19.30
2023-05-26T17:29:03.276Z,19.30
2023-05-26T17:34:06.052Z,19.10
2023-05-26T17:39:08.058Z,19.10
2023-05-26T17:44:12.393Z,19.00
2023-05-26T17:49:14.242Z,18.90
2023-05-26T17:54:16.433Z,18.80
2023-05-26T17:59:18.146Z,18.70
2023-05-26T18:04:19.937Z,18.60
2023-05-26T18:09:21.626Z,18.50
2023-05-26T18:14:23.383Z,18.30
2023-05-26T18:19:25.095Z,18.20
2023-05-26T18:24:28.513Z,18.10
2023-05-26T18:29:30.361Z,17.90
2023-05-26T18:34:34.062Z,17.80
2023-05-26T18:39:35.792Z,17.70
2023-05-26T18:44:38.440Z,17.60
2023-05-26T18:49:40.304Z,17.40
2023-05-26T18:54:44.301Z,17.30
2023-05-26T18:59:45.974Z,17.20
2023-05-26T19:04:47.590Z,17.10
2023-05-26T19:09:49.311Z,17.00
2023-05-26T19:14:51.041Z,16.90
2023-05-26T19:19:54.154Z,16.70
2023-05-26T19:24:56.955Z,16.60
2023-05-26T19:30:00.718Z,16.50
2023-05-26T19:35:02.693Z,16.40
2023-05-26T19:40:04.642Z,16.20
2023-05-26T19:45:06.794Z,16.10
2023-05-26T19:50:08.588Z,16.20
2023-05-26T19:55:10.422Z,15.90
2023-05-26T20:00:12.594Z,15.80
2023-05-26T20:05:14.424Z,15.60
2023-05-26T20:10:16.347Z,15.50
2023-05-26T20:15:18.150Z,15.40
2023-05-26T20:20:19.890Z,15.20
2023-05-26T20:25:21.574Z,15.20
2023-05-26T20:30:24.640Z,15.10
2023-05-26T20:35:26.961Z,15.10
2023-05-26T20:40:28.667Z,15.00
2023-05-26T20:45:31.370Z,15.00
2023-05-26T20:50:35.007Z,15.00
2023-05-26T20:55:36.653Z,14.90
2023-05-26T21:00:38.371Z,14.80
2023-05-26T21:05:40.079Z,14.60
2023-05-26T21:10:42.737Z,14.50
2023-05-26T21:15:44.535Z,14.40
2023-05-26T21:20:46.631Z,14.20
2023-05-26T21:25:48.318Z,14.10
2023-05-26T21:30:51.199Z,14.00
2023-05-26T21:35:52.914Z,14.10
2023-05-26T21:40:56.538Z,14.00
2023-05-26T21:45:58.289Z,13.90
2023-05-26T21:50:59.914Z,13.70
2023-05-26T21:56:06.615Z,13.50
2023-05-26T22:01:08.512Z,13.60
2023-05-26T22:06:10.421Z,13.60
2023-05-26T22:11:12.523Z,13.40
2023-05-26T22:16:16.503Z,13.30
2023-05-26T22:21:28.134Z,13.10
2023-05-26T22:26:31.845Z,13.00
2023-05-26T22:31:48.769Z,13.00
2023-05-26T22:36:55.602Z,12.90
2023-05-26T22:42:01.318Z,12.80
2023-05-26T22:47:04.193Z,12.70
2023-05-26T22:52:16.211Z,12.50
2023-05-26T22:57:19.204Z,12.50
2023-05-26T23:02:47.010Z,12.50
2023-05-26T23:07:52.902Z,12.40
2023-05-26T23:12:58.480Z,12.50
2023-05-26T23:18:04.333Z,12.50
2023-05-26T23:23:08.103Z,12.40
2023-05-26T23:28:10.832Z,12.20
2023-05-26T23:33:38.531Z,12.10
2023-05-26T23:38:42.213Z,12.00
2023-05-26T23:44:04.113Z,11.90
2023-05-26T23:49:07.104Z,11.90
2023-05-26T23:54:09.739Z,11.80
2023-05-26T23:59:44.277Z,11.60
